sensor_id;sensor_type;location;lat;lon;timestamp;temperature;humidity
16825;DHT22;8529;48.108;-1.706;2023-04-03T00:02:02;8.40;99.90
16825;DHT22;8529;48.108;-1.706;2023-04-03T00:04:29;8.40;99.90
16825;DHT22;8529;48.108;-1.706;2023-04-03T00:06:56;8.30;99.90
16825;DHT22;8529;48.108;-1.706;2023-04-03T00:09:23;8.30;99.90
16825;DHT22;8529;48.108;-1.706;2023-04-03T00:11:51;8.20;99.90
16825;DHT22;8529;48.108;-1.706;2023-04-03T00:14:18;8.20;99.90
16825;DHT22;8529;48.108;-1.706;2023-04-03T00:16:45;8.20;99.90
16825;DHT22;8529;48.108;-1.706;2023-04-03T00:19:12;8.10;99.90
16825;DHT22;8529;48.108;-1.706;2023-04-03T00:21:39;8.10;99.90
16825;DHT22;8529;48.108;-1.706;2023-04-03T00:24:07;8.00;99.90
16825;DHT22;8529;48.108;-1.706;2023-04-03T00:26:39;8.00;99.90
16825;DHT22;8529;48.108;-1.706;2023-04-03T00:29:07;7.90;99.90
16825;DHT22;8529;48.108;-1.706;2023-04-03T00:31:40;7.90;99.90
16825;DHT22;8529;48.108;-1.706;2023-04-03T00:34:06;7.80;99.90
16825;DHT22;8529;48.108;-1.706;2023-04-03T00:36:35;7.80;99.90
16825;DHT22;8529;48.108;-1.706;2023-04-03T00:39:03;7.70;99.90
16825;DHT22;8529;48.108;-1.706;2023-04-03T00:41:31;7.70;99.90
16825;DHT22;8529;48.108;-1.706;2023-04-03T00:43:58;7.60;99.90
16825;DHT22;8529;48.108;-1.706;2023-04-03T00:46:26;7.50;99.90
16825;DHT22;8529;48.108;-1.706;2023-04-03T00:48:53;7.50;99.90
16825;DHT22;8529;48.108;-1.706;2023-04-03T00:51:24;7.40;99.90
16825;DHT22;8529;48.108;-1.706;2023-04-03T00:53:54;7.40;99.90
16825;DHT22;8529;48.108;-1.706;2023-04-03T00:56:25;7.30;99.90
16825;DHT22;8529;48.108;-1.706;2023-04-03T00:58:58;7.30;99.90
16825;DHT22;8529;48.108;-1.706;2023-04-03T01:01:28;7.30;99.90
16825;DHT22;8529;48.108;-1.706;2023-04-03T01:03:57;7.30;99.90
16825;DHT22;8529;48.108;-1.706;2023-04-03T01:06:28;7.20;99.90
16825;DHT22;8529;48.108;-1.706;2023-04-03T01:08:56;7.20;99.90
16825;DHT22;8529;48.108;-1.706;2023-04-03T01:11:23;7.20;99.90
16825;DHT22;8529;48.108;-1.706;2023-04-03T01:13:51;7.30;99.90
16825;DHT22;8529;48.108;-1.706;2023-04-03T01:16:19;7.30;99.90
16825;DHT22;8529;48.108;-1.706;2023-04-03T01:18:47;7.40;99.90
16825;DHT22;8529;48.108;-1.706;2023-04-03T01:21:45;7.30;99.90
16825;DHT22;8529;48.108;-1.706;2023-04-03T01:24:27;7.30;99.90
16825;DHT22;8529;48.108;-1.706;2023-04-03T01:26:57;7.30;99.90
16825;DHT22;8529;48.108;-1.706;2023-04-03T01:29:24;7.20;99.90
16825;DHT22;8529;48.108;-1.706;2023-04-03T01:31:54;7.30;99.90
16825;DHT22;8529;48.108;-1.706;2023-04-03T01:34:21;7.30;99.90
16825;DHT22;8529;48.108;-1.706;2023-04-03T01:36:48;7.40;99.90
16825;DHT22;8529;48.108;-1.706;2023-04-03T01:39:16;7.50;99.90
16825;DHT22;8529;48.108;-1.706;2023-04-03T01:41:43;7.50;99.90
16825;DHT22;8529;48.108;-1.706;2023-04-03T01:44:10;7.60;99.90
16825;DHT22;8529;48.108;-1.706;2023-04-03T01:46:37;7.50;99.90
16825;DHT22;8529;48.108;-1.706;2023-04-03T01:49:06;7.60;99.90
16825;DHT22;8529;48.108;-1.706;2023-04-03T01:51:32;7.60;99.90
16825;DHT22;8529;48.108;-1.706;2023-04-03T01:53:59;7.60;99.90
16825;DHT22;8529;48.108;-1.706;2023-04-03T01:56:27;7.60;99.90
16825;DHT22;8529;48.108;-1.706;2023-04-03T01:58:53;7.50;99.90
16825;DHT22;8529;48.108;-1.706;2023-04-03T02:01:20;7.50;99.90
16825;DHT22;8529;48.108;-1.706;2023-04-03T02:03:47;7.60;99.90
16825;DHT22;8529;48.108;-1.706;2023-04-03T02:06:15;7.60;99.90
16825;DHT22;8529;48.108;-1.706;2023-04-03T02:08:42;7.50;99.90
16825;DHT22;8529;48.108;-1.706;2023-04-03T02:11:09;7.60;99.90
16825;DHT22;8529;48.108;-1.706;2023-04-03T02:13:36;7.60;99.90
16825;DHT22;8529;48.108;-1.706;2023-04-03T02:16:07;7.60;99.90
16825;DHT22;8529;48.108;-1.706;2023-04-03T02:18:34;7.60;99.90
16825;DHT22;8529;48.108;-1.706;2023-04-03T02:21:00;7.70;99.90
16825;DHT22;8529;48.108;-1.706;2023-04-03T02:23:29;7.60;99.90
16825;DHT22;8529;48.108;-1.706;2023-04-03T02:26:03;7.60;99.90
16825;DHT22;8529;48.108;-1.706;2023-04-03T02:28:31;7.60;99.90
16825;DHT22;8529;48.108;-1.706;2023-04-03T02:30:58;7.50;99.90
16825;DHT22;8529;48.108;-1.706;2023-04-03T02:33:25;7.50;99.90
16825;DHT22;8529;48.108;-1.706;2023-04-03T02:35:53;7.40;99.90
16825;DHT22;8529;48.108;-1.706;2023-04-03T02:38:20;7.40;99.90
16825;DHT22;8529;48.108;-1.706;2023-04-03T02:40:49;7.40;99.90
16825;DHT22;8529;48.108;-1.706;2023-04-03T02:43:16;7.40;99.90
16825;DHT22;8529;48.108;-1.706;2023-04-03T02:45:43;7.40;99.90
16825;DHT22;8529;48.108;-1.706;2023-04-03T02:48:10;7.40;99.90
16825;DHT22;8529;48.108;-1.706;2023-04-03T02:50:37;7.40;99.90
16825;DHT22;8529;48.108;-1.706;2023-04-03T02:53:05;7.40;99.90
16825;DHT22;8529;48.108;-1.706;2023-04-03T02:55:32;7.40;99.90
16825;DHT22;8529;48.108;-1.706;2023-04-03T02:58:00;7.40;99.90
16825;DHT22;8529;48.108;-1.706;2023-04-03T03:00:27;7.40;99.90
16825;DHT22;8529;48.108;-1.706;2023-04-03T03:02:54;7.40;99.90
16825;DHT22;8529;48.108;-1.706;2023-04-03T03:05:21;7.40;99.90
16825;DHT22;8529;48.108;-1.706;2023-04-03T03:07:48;7.40;99.90
16825;DHT22;8529;48.108;-1.706;2023-04-03T03:10:15;7.40;99.90
16825;DHT22;8529;48.108;-1.706;2023-04-03T03:12:42;7.40;99.90
16825;DHT22;8529;48.108;-1.706;2023-04-03T03:15:10;7.40;99.90
16825;DHT22;8529;48.108;-1.706;2023-04-03T03:17:38;7.40;99.90
16825;DHT22;8529;48.108;-1.706;2023-04-03T03:20:06;7.50;99.90
16825;DHT22;8529;48.108;-1.706;2023-04-03T03:22:34;7.40;99.90
16825;DHT22;8529;48.108;-1.706;2023-04-03T03:25:01;7.40;99.90
16825;DHT22;8529;48.108;-1.706;2023-04-03T03:27:28;7.40;99.90
16825;DHT22;8529;48.108;-1.706;2023-04-03T03:29:55;7.40;99.90
16825;DHT22;8529;48.108;-1.706;2023-04-03T03:32:24;7.40;99.90
16825;DHT22;8529;48.108;-1.706;2023-04-03T03:34:51;7.40;99.90
16825;DHT22;8529;48.108;-1.706;2023-04-03T03:37:18;7.40;99.90
16825;DHT22;8529;48.108;-1.706;2023-04-03T03:39:44;7.30;99.90
16825;DHT22;8529;48.108;-1.706;2023-04-03T03:42:11;7.20;99.90
16825;DHT22;8529;48.108;-1.706;2023-04-03T03:44:38;7.20;99.90
16825;DHT22;8529;48.108;-1.706;2023-04-03T03:47:05;7.10;99.90
16825;DHT22;8529;48.108;-1.706;2023-04-03T03:49:36;7.10;99.90
16825;DHT22;8529;48.108;-1.706;2023-04-03T03:52:03;7.00;99.90
16825;DHT22;8529;48.108;-1.706;2023-04-03T03:54:30;7.00;99.90
16825;DHT22;8529;48.108;-1.706;2023-04-03T03:56:57;6.90;99.90
16825;DHT22;8529;48.108;-1.706;2023-04-03T03:59:24;6.90;99.90
16825;DHT22;8529;48.108;-1.706;2023-04-03T04:01:51;6.90;99.90
16825;DHT22;8529;48.108;-1.706;2023-04-03T04:04:17;6.90;99.90
16825;DHT22;8529;48.108;-1.706;2023-04-03T04:06:46;6.90;99.90
16825;DHT22;8529;48.108;-1.706;2023-04-03T04:09:13;6.80;99.90
16825;DHT22;8529;48.108;-1.706;2023-04-03T04:11:40;6.80;99.90
16825;DHT22;8529;48.108;-1.706;2023-04-03T04:14:07;6.70;99.90
16825;DHT22;8529;48.108;-1.706;2023-04-03T04:16:35;6.70;99.90
16825;DHT22;8529;48.108;-1.706;2023-04-03T04:19:02;6.70;99.90
16825;DHT22;8529;48.108;-1.706;2023-04-03T04:21:29;6.70;99.90
16825;DHT22;8529;48.108;-1.706;2023-04-03T04:23:57;6.70;99.90
16825;DHT22;8529;48.108;-1.706;2023-04-03T04:26:24;6.70;99.90
16825;DHT22;8529;48.108;-1.706;2023-04-03T04:28:51;6.60;99.90
16825;DHT22;8529;48.108;-1.706;2023-04-03T04:31:18;6.70;99.90
16825;DHT22;8529;48.108;-1.706;2023-04-03T04:33:45;6.70;99.90
16825;DHT22;8529;48.108;-1.706;2023-04-03T04:36:12;6.60;99.90
16825;DHT22;8529;48.108;-1.706;2023-04-03T04:38:40;6.60;99.90
16825;DHT22;8529;48.108;-1.706;2023-04-03T04:41:08;6.50;99.90
16825;DHT22;8529;48.108;-1.706;2023-04-03T04:43:35;6.60;99.90
16825;DHT22;8529;48.108;-1.706;2023-04-03T04:46:03;6.60;99.90
16825;DHT22;8529;48.108;-1.706;2023-04-03T04:48:30;6.60;99.90
16825;DHT22;8529;48.108;-1.706;2023-04-03T04:50:57;6.60;99.90
16825;DHT22;8529;48.108;-1.706;2023-04-03T04:53:24;6.60;99.90
16825;DHT22;8529;48.108;-1.706;2023-04-03T04:55:51;6.60;99.90
16825;DHT22;8529;48.108;-1.706;2023-04-03T04:58:20;6.60;99.90
16825;DHT22;8529;48.108;-1.706;2023-04-03T05:00:47;6.60;99.90
16825;DHT22;8529;48.108;-1.706;2023-04-03T05:03:14;6.60;99.90
16825;DHT22;8529;48.108;-1.706;2023-04-03T05:05:41;6.60;99.90
16825;DHT22;8529;48.108;-1.706;2023-04-03T05:08:08;6.70;99.90
16825;DHT22;8529;48.108;-1.706;2023-04-03T05:10:34;6.70;99.90
16825;DHT22;8529;48.108;-1.706;2023-04-03T05:13:02;6.70;99.90
16825;DHT22;8529;48.108;-1.706;2023-04-03T05:15:30;6.60;99.90
16825;DHT22;8529;48.108;-1.706;2023-04-03T05:17:57;6.60;99.90
16825;DHT22;8529;48.108;-1.706;2023-04-03T05:20:23;6.60;99.90
16825;DHT22;8529;48.108;-1.706;2023-04-03T05:22:50;6.50;99.90
16825;DHT22;8529;48.108;-1.706;2023-04-03T05:25:17;6.50;99.90
16825;DHT22;8529;48.108;-1.706;2023-04-03T05:27:44;6.60;99.90
16825;DHT22;8529;48.108;-1.706;2023-04-03T05:30:12;6.60;99.90
16825;DHT22;8529;48.108;-1.706;2023-04-03T05:32:40;6.50;99.90
16825;DHT22;8529;48.108;-1.706;2023-04-03T05:35:08;6.50;99.90
16825;DHT22;8529;48.108;-1.706;2023-04-03T05:37:36;6.60;99.90
16825;DHT22;8529;48.108;-1.706;2023-04-03T05:40:04;6.60;99.90
16825;DHT22;8529;48.108;-1.706;2023-04-03T05:42:31;6.70;99.90
16825;DHT22;8529;48.108;-1.706;2023-04-03T05:44:58;6.70;99.90
16825;DHT22;8529;48.108;-1.706;2023-04-03T05:47:25;6.60;99.90
16825;DHT22;8529;48.108;-1.706;2023-04-03T05:49:53;6.60;99.90
16825;DHT22;8529;48.108;-1.706;2023-04-03T05:52:23;6.60;99.90
16825;DHT22;8529;48.108;-1.706;2023-04-03T05:54:50;6.60;99.90
16825;DHT22;8529;48.108;-1.706;2023-04-03T05:57:17;6.60;99.90
16825;DHT22;8529;48.108;-1.706;2023-04-03T05:59:44;6.60;99.90
16825;DHT22;8529;48.108;-1.706;2023-04-03T06:02:12;6.50;99.90
16825;DHT22;8529;48.108;-1.706;2023-04-03T06:04:40;6.60;99.90
16825;DHT22;8529;48.108;-1.706;2023-04-03T06:07:10;6.70;99.90
16825;DHT22;8529;48.108;-1.706;2023-04-03T06:09:38;6.70;99.90
16825;DHT22;8529;48.108;-1.706;2023-04-03T06:12:05;6.60;99.90
16825;DHT22;8529;48.108;-1.706;2023-04-03T06:14:32;6.60;99.90
16825;DHT22;8529;48.108;-1.706;2023-04-03T06:16:59;6.60;99.90
16825;DHT22;8529;48.108;-1.706;2023-04-03T06:19:27;6.60;99.90
16825;DHT22;8529;48.108;-1.706;2023-04-03T06:21:54;6.60;99.90
16825;DHT22;8529;48.108;-1.706;2023-04-03T06:24:22;6.60;99.90
16825;DHT22;8529;48.108;-1.706;2023-04-03T06:26:50;6.60;99.90
16825;DHT22;8529;48.108;-1.706;2023-04-03T06:29:18;6.70;99.90
16825;DHT22;8529;48.108;-1.706;2023-04-03T06:31:45;6.70;99.90
16825;DHT22;8529;48.108;-1.706;2023-04-03T06:34:12;6.70;99.90
16825;DHT22;8529;48.108;-1.706;2023-04-03T06:36:39;6.70;99.90
16825;DHT22;8529;48.108;-1.706;2023-04-03T06:39:06;6.70;99.90
16825;DHT22;8529;48.108;-1.706;2023-04-03T06:41:35;6.70;99.90
16825;DHT22;8529;48.108;-1.706;2023-04-03T06:44:02;6.80;99.90
16825;DHT22;8529;48.108;-1.706;2023-04-03T06:46:29;6.80;99.90
16825;DHT22;8529;48.108;-1.706;2023-04-03T06:48:55;6.90;99.90
16825;DHT22;8529;48.108;-1.706;2023-04-03T06:51:24;6.90;99.90
16825;DHT22;8529;48.108;-1.706;2023-04-03T06:53:52;6.90;99.90
16825;DHT22;8529;48.108;-1.706;2023-04-03T06:56:20;7.00;99.90
16825;DHT22;8529;48.108;-1.706;2023-04-03T06:58:49;7.00;99.90
16825;DHT22;8529;48.108;-1.706;2023-04-03T07:01:17;7.00;99.90
16825;DHT22;8529;48.108;-1.706;2023-04-03T07:03:45;7.00;99.90
16825;DHT22;8529;48.108;-1.706;2023-04-03T07:06:14;7.10;99.90
16825;DHT22;8529;48.108;-1.706;2023-04-03T07:08:42;7.10;99.90
16825;DHT22;8529;48.108;-1.706;2023-04-03T07:11:10;7.10;99.90
16825;DHT22;8529;48.108;-1.706;2023-04-03T07:13:37;7.10;99.90
16825;DHT22;8529;48.108;-1.706;2023-04-03T07:16:08;7.10;99.90
16825;DHT22;8529;48.108;-1.706;2023-04-03T07:18:35;7.10;99.90
16825;DHT22;8529;48.108;-1.706;2023-04-03T07:21:03;7.00;99.90
16825;DHT22;8529;48.108;-1.706;2023-04-03T07:23:30;7.00;99.90
16825;DHT22;8529;48.108;-1.706;2023-04-03T07:25:57;7.10;99.90
16825;DHT22;8529;48.108;-1.706;2023-04-03T07:28:24;7.10;99.90
16825;DHT22;8529;48.108;-1.706;2023-04-03T07:30:52;7.10;99.90
16825;DHT22;8529;48.108;-1.706;2023-04-03T07:33:22;7.10;99.90
16825;DHT22;8529;48.108;-1.706;2023-04-03T07:35:49;7.00;99.90
16825;DHT22;8529;48.108;-1.706;2023-04-03T07:38:16;7.00;99.90
16825;DHT22;8529;48.108;-1.706;2023-04-03T07:40:46;7.00;99.90
16825;DHT22;8529;48.108;-1.706;2023-04-03T07:43:14;7.00;99.90
16825;DHT22;8529;48.108;-1.706;2023-04-03T07:45:41;7.10;99.90
16825;DHT22;8529;48.108;-1.706;2023-04-03T07:48:09;7.10;99.90
16825;DHT22;8529;48.108;-1.706;2023-04-03T07:50:39;7.10;99.90
16825;DHT22;8529;48.108;-1.706;2023-04-03T07:53:06;7.20;99.90
16825;DHT22;8529;48.108;-1.706;2023-04-03T07:55:33;7.20;99.90
16825;DHT22;8529;48.108;-1.706;2023-04-03T07:58:02;7.20;99.90
16825;DHT22;8529;48.108;-1.706;2023-04-03T08:00:30;7.30;99.90
16825;DHT22;8529;48.108;-1.706;2023-04-03T08:02:57;7.30;99.90
16825;DHT22;8529;48.108;-1.706;2023-04-03T08:05:24;7.30;99.90
16825;DHT22;8529;48.108;-1.706;2023-04-03T08:07:52;7.20;99.90
16825;DHT22;8529;48.108;-1.706;2023-04-03T08:10:19;7.20;99.90
16825;DHT22;8529;48.108;-1.706;2023-04-03T08:12:46;7.20;99.90
16825;DHT22;8529;48.108;-1.706;2023-04-03T08:15:13;7.20;99.90
16825;DHT22;8529;48.108;-1.706;2023-04-03T08:17:40;7.30;99.90
16825;DHT22;8529;48.108;-1.706;2023-04-03T08:20:09;7.30;99.90
16825;DHT22;8529;48.108;-1.706;2023-04-03T08:22:36;7.30;99.90
16825;DHT22;8529;48.108;-1.706;2023-04-03T08:25:06;7.40;99.90
16825;DHT22;8529;48.108;-1.706;2023-04-03T08:27:34;7.40;99.90
16825;DHT22;8529;48.108;-1.706;2023-04-03T08:30:00;7.50;99.90
16825;DHT22;8529;48.108;-1.706;2023-04-03T08:32:28;7.50;99.90
16825;DHT22;8529;48.108;-1.706;2023-04-03T08:34:55;7.50;99.90
16825;DHT22;8529;48.108;-1.706;2023-04-03T08:37:22;7.50;99.90
16825;DHT22;8529;48.108;-1.706;2023-04-03T08:39:49;7.50;99.90
16825;DHT22;8529;48.108;-1.706;2023-04-03T08:42:24;7.60;99.90
16825;DHT22;8529;48.108;-1.706;2023-04-03T08:45:00;7.50;99.90
16825;DHT22;8529;48.108;-1.706;2023-04-03T08:47:31;7.50;99.90
16825;DHT22;8529;48.108;-1.706;2023-04-03T08:50:06;7.50;99.90
16825;DHT22;8529;48.108;-1.706;2023-04-03T08:52:37;7.60;99.90
16825;DHT22;8529;48.108;-1.706;2023-04-03T08:55:07;7.50;99.90
16825;DHT22;8529;48.108;-1.706;2023-04-03T08:57:44;7.50;99.90
16825;DHT22;8529;48.108;-1.706;2023-04-03T09:00:16;7.40;99.90
16825;DHT22;8529;48.108;-1.706;2023-04-03T09:02:46;7.40;99.90
16825;DHT22;8529;48.108;-1.706;2023-04-03T09:05:15;7.50;99.90
16825;DHT22;8529;48.108;-1.706;2023-04-03T09:07:45;7.60;99.90
16825;DHT22;8529;48.108;-1.706;2023-04-03T09:10:15;7.60;99.90
16825;DHT22;8529;48.108;-1.706;2023-04-03T09:12:51;7.50;99.90
16825;DHT22;8529;48.108;-1.706;2023-04-03T09:15:21;7.50;99.90
16825;DHT22;8529;48.108;-1.706;2023-04-03T09:17:58;7.50;99.90
16825;DHT22;8529;48.108;-1.706;2023-04-03T09:20:36;7.50;99.90
16825;DHT22;8529;48.108;-1.706;2023-04-03T09:23:15;7.50;99.90
16825;DHT22;8529;48.108;-1.706;2023-04-03T09:25:43;7.50;99.90
16825;DHT22;8529;48.108;-1.706;2023-04-03T09:28:12;7.50;99.90
16825;DHT22;8529;48.108;-1.706;2023-04-03T09:30:39;7.50;99.90
16825;DHT22;8529;48.108;-1.706;2023-04-03T09:33:06;7.60;99.90
16825;DHT22;8529;48.108;-1.706;2023-04-03T09:35:35;7.60;99.90
16825;DHT22;8529;48.108;-1.706;2023-04-03T09:38:16;7.60;99.90
16825;DHT22;8529;48.108;-1.706;2023-04-03T09:40:44;7.60;99.90
16825;DHT22;8529;48.108;-1.706;2023-04-03T09:43:25;7.60;99.90
16825;DHT22;8529;48.108;-1.706;2023-04-03T09:45:52;7.60;99.90
16825;DHT22;8529;48.108;-1.706;2023-04-03T09:48:20;7.70;99.90
16825;DHT22;8529;48.108;-1.706;2023-04-03T09:50:58;7.70;99.90
16825;DHT22;8529;48.108;-1.706;2023-04-03T09:53:29;7.70;99.90
16825;DHT22;8529;48.108;-1.706;2023-04-03T09:55:57;7.80;99.90
16825;DHT22;8529;48.108;-1.706;2023-04-03T09:58:27;7.80;99.90
16825;DHT22;8529;48.108;-1.706;2023-04-03T10:00:56;7.90;99.90
16825;DHT22;8529;48.108;-1.706;2023-04-03T10:03:27;7.90;99.90
16825;DHT22;8529;48.108;-1.706;2023-04-03T10:05:54;8.00;99.90
16825;DHT22;8529;48.108;-1.706;2023-04-03T10:08:25;7.90;99.90
16825;DHT22;8529;48.108;-1.706;2023-04-03T10:11:08;7.80;99.90
16825;DHT22;8529;48.108;-1.706;2023-04-03T10:13:50;7.80;99.90
16825;DHT22;8529;48.108;-1.706;2023-04-03T10:16:20;7.80;99.90
16825;DHT22;8529;48.108;-1.706;2023-04-03T10:18:54;7.80;99.90
16825;DHT22;8529;48.108;-1.706;2023-04-03T10:21:32;7.80;99.90
16825;DHT22;8529;48.108;-1.706;2023-04-03T10:24:08;7.90;99.90
16825;DHT22;8529;48.108;-1.706;2023-04-03T10:26:42;7.90;99.90
16825;DHT22;8529;48.108;-1.706;2023-04-03T10:29:26;7.90;99.90
16825;DHT22;8529;48.108;-1.706;2023-04-03T10:32:01;8.00;99.90
16825;DHT22;8529;48.108;-1.706;2023-04-03T10:34:32;8.00;99.90
16825;DHT22;8529;48.108;-1.706;2023-04-03T10:37:09;8.10;99.90
16825;DHT22;8529;48.108;-1.706;2023-04-03T10:39:46;8.10;99.90
16825;DHT22;8529;48.108;-1.706;2023-04-03T10:42:20;8.20;99.90
16825;DHT22;8529;48.108;-1.706;2023-04-03T10:45:10;8.20;99.90
16825;DHT22;8529;48.108;-1.706;2023-04-03T10:47:47;8.30;99.90
16825;DHT22;8529;48.108;-1.706;2023-04-03T10:50:29;8.20;99.90
16825;DHT22;8529;48.108;-1.706;2023-04-03T10:53:02;8.30;99.90
16825;DHT22;8529;48.108;-1.706;2023-04-03T10:55:34;8.30;99.90
16825;DHT22;8529;48.108;-1.706;2023-04-03T10:58:04;8.40;99.90
16825;DHT22;8529;48.108;-1.706;2023-04-03T11:00:38;8.30;99.90
16825;DHT22;8529;48.108;-1.706;2023-04-03T11:03:11;8.40;99.90
16825;DHT22;8529;48.108;-1.706;2023-04-03T11:05:42;8.50;99.90
16825;DHT22;8529;48.108;-1.706;2023-04-03T11:08:16;8.60;99.90
16825;DHT22;8529;48.108;-1.706;2023-04-03T11:10:49;8.70;99.90
16825;DHT22;8529;48.108;-1.706;2023-04-03T11:13:20;8.70;99.90
16825;DHT22;8529;48.108;-1.706;2023-04-03T11:15:53;8.80;99.90
16825;DHT22;8529;48.108;-1.706;2023-04-03T11:18:25;8.80;99.90
16825;DHT22;8529;48.108;-1.706;2023-04-03T11:21:03;8.80;99.90
16825;DHT22;8529;48.108;-1.706;2023-04-03T11:23:35;9.00;99.90
16825;DHT22;8529;48.108;-1.706;2023-04-03T11:26:09;9.00;99.90
16825;DHT22;8529;48.108;-1.706;2023-04-03T11:28:37;9.20;99.90
16825;DHT22;8529;48.108;-1.706;2023-04-03T11:31:14;9.30;99.90
16825;DHT22;8529;48.108;-1.706;2023-04-03T11:33:49;9.50;99.90
16825;DHT22;8529;48.108;-1.706;2023-04-03T11:36:21;9.70;99.90
16825;DHT22;8529;48.108;-1.706;2023-04-03T11:38:53;9.80;99.90
16825;DHT22;8529;48.108;-1.706;2023-04-03T11:41:26;10.00;99.90
16825;DHT22;8529;48.108;-1.706;2023-04-03T11:43:59;10.00;99.90
16825;DHT22;8529;48.108;-1.706;2023-04-03T11:46:50;10.10;99.90
16825;DHT22;8529;48.108;-1.706;2023-04-03T11:49:51;10.20;99.90
16825;DHT22;8529;48.108;-1.706;2023-04-03T11:55:43;10.30;99.90
16825;DHT22;8529;48.108;-1.706;2023-04-03T11:58:16;10.30;99.90
16825;DHT22;8529;48.108;-1.706;2023-04-03T12:01:05;10.30;99.90
16825;DHT22;8529;48.108;-1.706;2023-04-03T12:07:02;10.50;99.90
16825;DHT22;8529;48.108;-1.706;2023-04-03T12:09:51;10.50;99.90
16825;DHT22;8529;48.108;-1.706;2023-04-03T12:12:33;10.50;99.90
16825;DHT22;8529;48.108;-1.706;2023-04-03T12:18:41;10.60;99.90
16825;DHT22;8529;48.108;-1.706;2023-04-03T12:21:09;10.60;99.90
16825;DHT22;8529;48.108;-1.706;2023-04-03T12:24:03;10.60;99.90
16825;DHT22;8529;48.108;-1.706;2023-04-03T12:26:38;10.60;99.90
16825;DHT22;8529;48.108;-1.706;2023-04-03T12:29:14;10.60;99.90
16825;DHT22;8529;48.108;-1.706;2023-04-03T12:31:49;10.70;99.90
16825;DHT22;8529;48.108;-1.706;2023-04-03T12:34:37;10.70;99.90
16825;DHT22;8529;48.108;-1.706;2023-04-03T12:37:21;10.70;99.90
16825;DHT22;8529;48.108;-1.706;2023-04-03T12:39:59;10.70;99.90
16825;DHT22;8529;48.108;-1.706;2023-04-03T12:42:56;10.60;99.90
16825;DHT22;8529;48.108;-1.706;2023-04-03T12:45:27;10.60;99.90
16825;DHT22;8529;48.108;-1.706;2023-04-03T12:47:56;10.70;99.90
16825;DHT22;8529;48.108;-1.706;2023-04-03T12:50:24;10.70;99.90
16825;DHT22;8529;48.108;-1.706;2023-04-03T12:53:03;10.70;99.90
16825;DHT22;8529;48.108;-1.706;2023-04-03T12:55:33;10.70;99.90
16825;DHT22;8529;48.108;-1.706;2023-04-03T12:58:13;10.70;99.90
16825;DHT22;8529;48.108;-1.706;2023-04-03T13:00:41;10.70;99.90
16825;DHT22;8529;48.108;-1.706;2023-04-03T13:03:21;10.70;99.90
16825;DHT22;8529;48.108;-1.706;2023-04-03T13:05:49;10.80;99.90
16825;DHT22;8529;48.108;-1.706;2023-04-03T13:08:17;10.90;99.90
16825;DHT22;8529;48.108;-1.706;2023-04-03T13:10:53;10.90;99.90
16825;DHT22;8529;48.108;-1.706;2023-04-03T13:13:21;11.00;99.90
16825;DHT22;8529;48.108;-1.706;2023-04-03T13:15:49;11.00;99.90
16825;DHT22;8529;48.108;-1.706;2023-04-03T13:18:28;11.00;99.90
16825;DHT22;8529;48.108;-1.706;2023-04-03T13:21:01;11.00;99.90
16825;DHT22;8529;48.108;-1.706;2023-04-03T13:23:29;10.90;99.90
16825;DHT22;8529;48.108;-1.706;2023-04-03T13:25:58;10.90;99.90
16825;DHT22;8529;48.108;-1.706;2023-04-03T13:28:30;10.90;99.90
16825;DHT22;8529;48.108;-1.706;2023-04-03T13:31:02;10.90;99.90
16825;DHT22;8529;48.108;-1.706;2023-04-03T13:33:32;10.90;99.90
16825;DHT22;8529;48.108;-1.706;2023-04-03T13:36:05;11.00;99.90
16825;DHT22;8529;48.108;-1.706;2023-04-03T13:38:33;10.90;99.90
16825;DHT22;8529;48.108;-1.706;2023-04-03T13:41:05;11.00;99.90
16825;DHT22;8529;48.108;-1.706;2023-04-03T13:43:46;11.10;99.90
16825;DHT22;8529;48.108;-1.706;2023-04-03T13:46:25;11.20;99.90
16825;DHT22;8529;48.108;-1.706;2023-04-03T13:48:54;11.20;99.90
16825;DHT22;8529;48.108;-1.706;2023-04-03T13:51:24;11.20;99.90
16825;DHT22;8529;48.108;-1.706;2023-04-03T13:53:54;11.30;99.90
16825;DHT22;8529;48.108;-1.706;2023-04-03T13:56:27;11.30;99.90
16825;DHT22;8529;48.108;-1.706;2023-04-03T13:59:01;11.30;99.90
16825;DHT22;8529;48.108;-1.706;2023-04-03T14:01:41;11.40;99.90
16825;DHT22;8529;48.108;-1.706;2023-04-03T14:04:15;11.40;99.90
16825;DHT22;8529;48.108;-1.706;2023-04-03T14:06:43;11.40;99.90
16825;DHT22;8529;48.108;-1.706;2023-04-03T14:09:10;11.40;99.90
16825;DHT22;8529;48.108;-1.706;2023-04-03T14:11:39;11.40;99.90
16825;DHT22;8529;48.108;-1.706;2023-04-03T14:14:13;11.40;99.90
16825;DHT22;8529;48.108;-1.706;2023-04-03T14:16:42;11.40;99.90
16825;DHT22;8529;48.108;-1.706;2023-04-03T14:19:17;11.40;99.90
16825;DHT22;8529;48.108;-1.706;2023-04-03T14:21:44;11.40;99.90
16825;DHT22;8529;48.108;-1.706;2023-04-03T14:24:10;11.40;99.90
16825;DHT22;8529;48.108;-1.706;2023-04-03T14:26:39;11.40;99.90
16825;DHT22;8529;48.108;-1.706;2023-04-03T14:29:06;11.40;99.90
16825;DHT22;8529;48.108;-1.706;2023-04-03T14:31:33;11.40;99.90
16825;DHT22;8529;48.108;-1.706;2023-04-03T14:34:00;11.30;99.90
16825;DHT22;8529;48.108;-1.706;2023-04-03T14:36:28;11.40;99.90
16825;DHT22;8529;48.108;-1.706;2023-04-03T14:38:55;11.30;99.90
16825;DHT22;8529;48.108;-1.706;2023-04-03T14:41:24;11.30;99.90
16825;DHT22;8529;48.108;-1.706;2023-04-03T14:43:53;11.40;99.90
16825;DHT22;8529;48.108;-1.706;2023-04-03T14:46:22;11.40;99.90
16825;DHT22;8529;48.108;-1.706;2023-04-03T14:48:50;11.50;99.90
16825;DHT22;8529;48.108;-1.706;2023-04-03T14:51:17;11.50;99.90
16825;DHT22;8529;48.108;-1.706;2023-04-03T14:53:44;11.50;99.90
16825;DHT22;8529;48.108;-1.706;2023-04-03T14:56:13;11.50;99.90
16825;DHT22;8529;48.108;-1.706;2023-04-03T14:58:40;11.50;99.90
16825;DHT22;8529;48.108;-1.706;2023-04-03T15:01:10;11.50;99.90
16825;DHT22;8529;48.108;-1.706;2023-04-03T15:03:39;11.50;99.90
16825;DHT22;8529;48.108;-1.706;2023-04-03T15:06:08;11.50;99.90
16825;DHT22;8529;48.108;-1.706;2023-04-03T15:08:35;11.40;99.90
16825;DHT22;8529;48.108;-1.706;2023-04-03T15:11:02;11.40;99.90
16825;DHT22;8529;48.108;-1.706;2023-04-03T15:13:29;11.40;99.90
16825;DHT22;8529;48.108;-1.706;2023-04-03T15:15:56;11.40;99.90
16825;DHT22;8529;48.108;-1.706;2023-04-03T15:18:27;11.50;99.90
16825;DHT22;8529;48.108;-1.706;2023-04-03T15:20:54;11.50;99.90
16825;DHT22;8529;48.108;-1.706;2023-04-03T15:23:21;11.40;99.90
16825;DHT22;8529;48.108;-1.706;2023-04-03T15:25:51;11.40;99.90
16825;DHT22;8529;48.108;-1.706;2023-04-03T15:28:23;11.40;99.90
16825;DHT22;8529;48.108;-1.706;2023-04-03T15:30:51;11.50;99.90
16825;DHT22;8529;48.108;-1.706;2023-04-03T15:33:19;11.50;99.90
16825;DHT22;8529;48.108;-1.706;2023-04-03T15:35:48;11.50;99.90
16825;DHT22;8529;48.108;-1.706;2023-04-03T15:38:15;11.50;99.90
16825;DHT22;8529;48.108;-1.706;2023-04-03T15:40:42;11.50;99.90
16825;DHT22;8529;48.108;-1.706;2023-04-03T15:43:09;11.50;99.90
16825;DHT22;8529;48.108;-1.706;2023-04-03T15:45:37;11.50;99.90
16825;DHT22;8529;48.108;-1.706;2023-04-03T15:48:04;11.60;99.90
16825;DHT22;8529;48.108;-1.706;2023-04-03T15:50:32;11.60;99.90
16825;DHT22;8529;48.108;-1.706;2023-04-03T15:53:01;11.70;99.90
16825;DHT22;8529;48.108;-1.706;2023-04-03T15:55:29;11.60;99.90
16825;DHT22;8529;48.108;-1.706;2023-04-03T15:57:57;11.60;99.90
16825;DHT22;8529;48.108;-1.706;2023-04-03T16:00:24;11.50;99.90
16825;DHT22;8529;48.108;-1.706;2023-04-03T16:02:53;11.50;99.90
16825;DHT22;8529;48.108;-1.706;2023-04-03T16:05:23;11.40;99.90
16825;DHT22;8529;48.108;-1.706;2023-04-03T16:07:51;11.50;99.90
16825;DHT22;8529;48.108;-1.706;2023-04-03T16:10:19;11.50;99.90